createdAt,value
2022-08-17T00:04:21.163Z,8.30
2022-08-17T00:09:24.853Z,8.70
2022-08-17T00:14:29.293Z,9.20
2022-08-17T00:19:33.207Z,8.90
2022-08-17T00:24:36.418Z,8.90
2022-08-17T00:29:39.558Z,9.20
2022-08-17T00:34:42.833Z,10.00
2022-08-17T00:39:46.121Z,9.30
2022-08-17T00:44:49.562Z,8.80
2022-08-17T00:49:53.075Z,9.30
2022-08-17T00:54:57.329Z,8.90
2022-08-17T01:00:36.181Z,9.40
2022-08-17T01:05:42.524Z,9.40
2022-08-17T01:10:59.176Z,8.50
2022-08-17T01:16:21.725Z,9.80
2022-08-17T01:21:41.521Z,9.10
2022-08-17T01:26:46.542Z,9.50
2022-08-17T01:31:57.045Z,10.20
2022-08-17T01:37:00.686Z,10.10
2022-08-17T01:42:28.962Z,10.10
2022-08-17T01:47:32.786Z,10.10
2022-08-17T01:52:41.068Z,9.90
2022-08-17T01:57:45.859Z,9.80
2022-08-17T02:02:49.262Z,9.80
2022-08-17T02:08:00.204Z,10.40
2022-08-17T02:13:05.030Z,9.30
2022-08-17T02:18:10.507Z,10.60
2022-08-17T02:23:15.026Z,10.30
2022-08-17T02:28:19.245Z,10.10
2022-08-17T02:33:22.655Z,10.40
2022-08-17T02:38:26.200Z,11.00
2022-08-17T02:43:29.481Z,10.40
2022-08-17T02:48:32.806Z,10.40
2022-08-17T02:53:36.323Z,10.60
2022-08-17T02:58:39.940Z,10.60
2022-08-17T03:03:43.275Z,10.70
2022-08-17T03:08:46.448Z,11.30
2022-08-17T03:13:51.336Z,10.40
2022-08-17T03:18:55.423Z,11.20
2022-08-17T03:23:58.631Z,10.50
2022-08-17T03:29:01.874Z,11.90
2022-08-17T03:34:05.360Z,11.90
2022-08-17T03:39:09.263Z,11.60
2022-08-17T03:44:12.592Z,12.10
2022-08-17T03:49:34.235Z,11.20
2022-08-17T03:54:56.385Z,10.60
2022-08-17T04:00:00.240Z,11.30
2022-08-17T04:05:03.966Z,11.40
2022-08-17T04:10:08.147Z,10.90
2022-08-17T04:15:12.834Z,11.30
2022-08-17T04:20:20.587Z,11.80
2022-08-17T04:30:33.679Z,10.80
2022-08-17T04:35:50.418Z,12.90
2022-08-17T04:41:13.601Z,11.90
2022-08-17T04:46:20.256Z,11.10
2022-08-17T04:51:32.605Z,13.00
2022-08-17T04:56:36.743Z,12.30
2022-08-17T05:01:42.354Z,11.90
2022-08-17T05:06:47.297Z,12.60
2022-08-17T05:11:50.573Z,12.40
2022-08-17T05:16:53.776Z,13.40
2022-08-17T05:21:56.983Z,13.20
2022-08-17T05:27:06.037Z,13.00
2022-08-17T05:32:39.624Z,12.60
2022-08-17T05:37:37.939Z,13.90
2022-08-17T05:42:41.495Z,14.50
2022-08-17T05:47:47.331Z,14.30
2022-08-17T05:53:12.876Z,13.70
2022-08-17T05:58:28.058Z,13.10
2022-08-17T06:04:03.104Z,14.80
2022-08-17T06:09:13.900Z,14.40
2022-08-17T06:14:29.448Z,14.10
2022-08-17T06:19:32.775Z,12.80
2022-08-17T06:24:46.869Z,14.10
2022-08-17T06:30:11.525Z,13.40
2022-08-17T06:35:30.029Z,13.10
2022-08-17T06:40:50.454Z,13.90
2022-08-17T06:46:37.921Z,13.50
2022-08-17T06:51:50.736Z,16.00
2022-08-17T06:57:19.044Z,13.40
2022-08-17T07:03:02.681Z,14.00
2022-08-17T07:08:20.558Z,13.80
2022-08-17T07:13:51.376Z,14.80
2022-08-17T07:18:59.135Z,14.10
2022-08-17T07:24:29.469Z,14.90
2022-08-17T07:29:57.860Z,15.10
2022-08-17T07:35:17.174Z,13.00
2022-08-17T07:40:27.798Z,14.00
2022-08-17T07:45:50.810Z,13.10
2022-08-17T07:50:55.328Z,13.40
2022-08-17T07:55:58.748Z,13.00
2022-08-17T08:01:15.722Z,12.80
2022-08-17T08:06:25.165Z,12.00
2022-08-17T08:17:09.399Z,12.40
2022-08-17T08:22:29.769Z,9.60
2022-08-17T08:28:07.233Z,9.70
2022-08-17T08:33:50.025Z,8.90
2022-08-17T08:39:06.730Z,8.80
2022-08-17T08:45:03.614Z,9.20
2022-08-17T08:50:37.429Z,9.40
2022-08-17T08:55:59.294Z,9.20
2022-08-17T09:01:28.110Z,9.40
2022-08-17T09:06:51.265Z,10.00
2022-08-17T09:12:09.645Z,10.00
2022-08-17T09:17:25.740Z,8.80
2022-08-17T09:29:48.657Z,8.60
2022-08-17T09:35:00.348Z,7.80
2022-08-17T09:40:23.725Z,7.40
2022-08-17T09:45:45.672Z,7.60
2022-08-17T09:51:18.478Z,8.00
2022-08-17T09:56:36.852Z,7.00
2022-08-17T10:01:46.540Z,5.90
2022-08-17T10:07:30.981Z,5.00
2022-08-17T10:13:06.950Z,4.80
2022-08-17T10:18:21.644Z,5.40
2022-08-17T10:23:48.803Z,6.70
2022-08-17T10:29:34.158Z,6.10
2022-08-17T10:35:49.657Z,7.00
2022-08-17T10:41:38.155Z,6.40
2022-08-17T10:47:08.003Z,6.60
2022-08-17T10:52:20.057Z,5.60
2022-08-17T10:57:47.562Z,6.70
2022-08-17T11:02:54.825Z,6.70
2022-08-17T11:08:34.406Z,6.20
2022-08-17T11:14:07.882Z,6.20
2022-08-17T11:19:18.698Z,6.80
2022-08-17T11:24:36.029Z,5.80
2022-08-17T11:29:56.787Z,6.40
2022-08-17T11:35:47.356Z,5.60
2022-08-17T11:47:01.918Z,5.90
2022-08-17T11:52:05.698Z,6.00
2022-08-17T11:57:27.374Z,6.00
2022-08-17T12:02:39.041Z,5.40
2022-08-17T12:08:04.974Z,5.50
2022-08-17T12:13:16.564Z,5.60
2022-08-17T12:18:32.406Z,5.60
2022-08-17T12:24:14.810Z,6.30
2022-08-17T12:29:35.863Z,5.80
2022-08-17T12:35:33.250Z,5.70
2022-08-17T12:40:36.871Z,5.10
2022-08-17T12:45:40.551Z,5.30
2022-08-17T12:50:46.235Z,5.60
2022-08-17T12:55:51.688Z,4.70
2022-08-17T13:01:11.273Z,4.90
2022-08-17T13:06:35.448Z,5.70
2022-08-17T13:11:50.794Z,4.80
2022-08-17T13:17:02.285Z,5.50
2022-08-17T13:22:15.103Z,4.90
2022-08-17T13:27:22.260Z,5.20
2022-08-17T13:32:33.677Z,5.50
2022-08-17T13:37:37.581Z,5.20
2022-08-17T13:42:53.058Z,4.20
2022-08-17T13:48:14.768Z,4.50
2022-08-17T13:53:31.501Z,5.00
2022-08-17T13:58:56.627Z,5.20
2022-08-17T14:04:04.526Z,4.70
2022-08-17T14:09:08.062Z,5.80
2022-08-17T14:14:14.661Z,5.20
2022-08-17T14:19:18.868Z,4.90
2022-08-17T14:24:39.989Z,5.30
2022-08-17T14:29:46.283Z,4.60
2022-08-17T14:34:50.427Z,4.80
2022-08-17T14:39:59.946Z,4.80
2022-08-17T14:45:06.468Z,4.80
2022-08-17T14:50:30.286Z,4.70
2022-08-17T14:55:37.063Z,5.00
2022-08-17T15:00:43.241Z,7.10
2022-08-17T15:05:47.143Z,4.70
2022-08-17T15:10:54.195Z,4.80
2022-08-17T15:16:02.894Z,5.50
2022-08-17T15:21:09.917Z,5.20
2022-08-17T15:26:13.191Z,5.30
2022-08-17T15:31:18.357Z,5.60
2022-08-17T15:36:35.476Z,5.90
2022-08-17T15:41:38.688Z,6.00
2022-08-17T15:46:41.993Z,6.20
2022-08-17T15:51:45.243Z,6.20
2022-08-17T15:56:48.642Z,5.70
2022-08-17T16:03:15.225Z,5.70
2022-08-17T16:07:26.483Z,5.90
2022-08-17T16:12:30.191Z,6.20
2022-08-17T16:17:39.839Z,6.70
2022-08-17T16:22:46.306Z,6.70
2022-08-17T16:27:53.623Z,6.90
2022-08-17T16:33:02.171Z,6.90
2022-08-17T16:38:07.054Z,6.20
2022-08-17T16:43:10.913Z,6.80
2022-08-17T16:48:16.000Z,7.20
2022-08-17T16:53:20.479Z,7.70
2022-08-17T16:58:23.747Z,6.80
2022-08-17T17:03:31.474Z,6.70
2022-08-17T17:08:49.313Z,6.80
2022-08-17T17:14:01.785Z,7.50
2022-08-17T17:19:46.849Z,7.00
2022-08-17T17:25:21.593Z,7.10
2022-08-17T17:30:57.047Z,7.80
2022-08-17T17:36:27.823Z,7.00
2022-08-17T17:41:47.299Z,6.70
2022-08-17T17:47:03.891Z,7.20
2022-08-17T17:52:30.539Z,7.30
2022-08-17T17:58:20.471Z,7.20
2022-08-17T18:03:50.933Z,7.70
2022-08-17T18:09:36.737Z,9.60
2022-08-17T18:20:53.504Z,7.80
2022-08-17T18:33:26.453Z,8.40
2022-08-17T18:39:26.478Z,8.50
2022-08-17T18:57:05.644Z,7.60
2022-08-17T19:10:48.173Z,9.70
2022-08-17T19:17:12.100Z,7.70
2022-08-17T19:22:50.152Z,8.20
2022-08-17T19:28:00.121Z,7.20
2022-08-17T19:33:04.878Z,8.80
2022-08-17T19:38:59.076Z,8.50
2022-08-17T19:44:27.373Z,9.00
2022-08-17T19:49:47.068Z,8.60
2022-08-17T19:55:20.807Z,9.90
2022-08-17T20:00:24.584Z,10.00
2022-08-17T20:06:00.958Z,8.50
2022-08-17T20:11:10.936Z,8.20
2022-08-17T20:16:14.275Z,7.70
2022-08-17T20:21:29.028Z,9.10
2022-08-17T20:26:59.909Z,8.70
2022-08-17T20:32:03.088Z,9.50
2022-08-17T20:37:15.112Z,9.30
2022-08-17T20:42:21.288Z,9.80
2022-08-17T20:48:18.621Z,8.80
2022-08-17T20:53:53.832Z,9.50
2022-08-17T20:58:57.134Z,8.00
2022-08-17T21:04:00.648Z,8.60
2022-08-17T21:09:12.976Z,8.90
2022-08-17T21:14:31.434Z,9.80
2022-08-17T21:20:11.397Z,10.80
2022-08-17T21:25:58.174Z,9.90
2022-08-17T21:31:09.127Z,9.80
2022-08-17T21:36:12.544Z,11.40
2022-08-17T21:41:27.728Z,10.10
2022-08-17T21:46:38.009Z,10.10
2022-08-17T21:51:51.300Z,9.90
2022-08-17T21:56:55.273Z,12.50
2022-08-17T22:02:02.962Z,9.00
2022-08-17T22:07:13.466Z,9.40
2022-08-17T22:12:24.547Z,9.00
2022-08-17T22:17:35.897Z,9.80
2022-08-17T22:23:20.771Z,9.90
2022-08-17T22:28:44.234Z,9.00
2022-08-17T22:34:02.187Z,9.30
2022-08-17T22:39:11.234Z,8.20
2022-08-17T22:44:37.916Z,9.00
2022-08-17T22:49:58.202Z,9.50
2022-08-17T22:55:32.742Z,10.20
2022-08-17T23:00:47.705Z,8.70
2022-08-17T23:06:10.808Z,9.10
2022-08-17T23:11:15.453Z,9.00
2022-08-17T23:16:18.750Z,8.60
2022-08-17T23:21:29.652Z,8.10
2022-08-17T23:26:39.609Z,9.30
2022-08-17T23:31:43.032Z,9.70
2022-08-17T23:36:52.276Z,8.70
2022-08-17T23:42:01.148Z,10.00
2022-08-17T23:47:05.869Z,9.80
2022-08-17T23:52:15.152Z,7.80
2022-08-17T23:57:33.819Z,8.90
